Berrien Springs, Michigan
Current Conditions -  °F | °C
As of 3:07 PM on Sunday 23 Nov 2014 (Local Time) from KBEH Reporting Station
Light Rain Light Rain  
Wind Chill: 51°   Ceiling: 2000
Heat Index: 51°   Visibility: 4mi
Dew Point: 47°   Wind: 9mph
Humidity: 86%   Direction: 130°SE
Pressure: 29.57"   Gusts: NA
Location:  41.95°N, 86.34°W
Report Text: KBEH 232007Z AUTO 13008KT 4SM -RA BR BKN020 BKN095 OVC110 11/08 A2957 RMK AO2 RAB1957 P0001 T01060083
Loading
Personal Weather Stations






























Interactive Weather Map New forecast layout! Learn more

10-Day Weather Forecast

Advertisements
Track Severe Weather on mobile